Time;durP1;ratioP1;P1;durP2;ratioP2;P2;SDS_P1;SDS_P2;PMS_P1;PMS_P2;Temp;Humidity;BMP_temperature;BMP_pressure;BME280_temperature;BME280_humidity;BME280_pressure;Samples;Min_cycle;Max_cycle;Signal;HPM_P1;HPM_P2
2021/04/27 00:01:30;;;;;;;18.70;10.02;;;13.00;99.90;;;;;;5011662;28;20065;-76
2021/04/27 00:03:56;;;;;;;18.15;9.93;;;13.00;99.90;;;;;;5011431;28;20419;-76
2021/04/27 00:06:22;;;;;;;16.75;10.02;;;12.90;99.90;;;;;;5012011;28;20025;-76
2021/04/27 00:08:47;;;;;;;22.10;10.50;;;12.80;99.90;;;;;;5012169;28;20513;-78
2021/04/27 00:11:14;;;;;;;20.33;10.77;;;12.70;99.90;;;;;;5011840;28;20022;-77
2021/04/27 00:13:39;;;;;;;19.92;10.10;;;12.70;99.90;;;;;;5011751;28;20547;-76
2021/04/27 00:16:05;;;;;;;13.00;8.80;;;12.70;99.90;;;;;;5011607;28;20030;-77
2021/04/27 00:18:31;;;;;;;12.57;7.97;;;12.80;99.90;;;;;;5011638;28;20093;-76
2021/04/27 00:20:57;;;;;;;17.27;9.20;;;12.80;99.90;;;;;;5011351;28;20025;-76
2021/04/27 00:23:23;;;;;;;15.88;9.80;;;12.90;99.90;;;;;;5011586;28;20087;-77
2021/04/27 00:25:49;;;;;;;14.43;9.05;;;12.90;99.90;;;;;;5011642;28;20502;-77
2021/04/27 00:28:15;;;;;;;16.85;9.90;;;12.90;99.90;;;;;;5011147;28;20021;-76
2021/04/27 00:30:41;;;;;;;14.30;8.98;;;12.80;99.90;;;;;;5011387;28;20073;-77
2021/04/27 00:33:07;;;;;;;22.73;9.68;;;12.80;99.90;;;;;;5011635;28;20039;-76
2021/04/27 00:35:32;;;;;;;19.77;10.50;;;12.80;99.90;;;;;;5011825;28;20127;-76
2021/04/27 00:37:59;;;;;;;23.20;11.20;;;12.80;99.90;;;;;;5011635;28;20021;-76
2021/04/27 00:40:27;;;;;;;18.80;10.23;;;12.70;99.90;;;;;;4994168;28;20494;-77
2021/04/27 00:42:53;;;;;;;20.50;10.52;;;12.70;99.90;;;;;;5011270;28;20049;-77
2021/04/27 00:45:25;;;;;;;18.67;9.98;;;12.70;99.90;;;;;;5011556;28;20101;-77
2021/04/27 00:47:51;;;;;;;;;;;12.60;99.90;;;;;;5011997;28;20525;-77
2021/04/27 00:50:21;;;;;;;18.35;11.02;;;12.60;99.90;;;;;;5011508;28;19940;-76
2021/04/27 00:52:47;;;;;;;26.77;11.27;;;12.60;99.90;;;;;;5010838;28;20022;-76
2021/04/27 00:55:14;;;;;;;15.68;11.23;;;12.60;99.90;;;;;;5010539;28;20018;-77
2021/04/27 00:57:40;;;;;;;18.80;10.88;;;12.50;99.90;;;;;;5010981;28;20018;-76
2021/04/27 01:00:13;;;;;;;17.52;9.90;;;12.60;99.90;;;;;;5010881;28;20038;-76
2021/04/27 01:02:38;;;;;;;19.02;10.50;;;12.60;99.90;;;;;;5011031;28;20061;-76
2021/04/27 01:05:13;;;;;;;17.88;10.55;;;12.60;99.90;;;;;;5011314;28;20065;-76
2021/04/27 01:07:50;;;;;;;21.98;10.77;;;12.60;99.90;;;;;;5012929;28;20053;-76
2021/04/27 01:10:20;;;;;;;22.17;11.02;;;12.60;99.90;;;;;;4997435;28;20030;-77
2021/04/27 01:12:54;;;;;;;20.00;11.65;;;12.60;99.90;;;;;;5014683;28;20512;-76
2021/04/27 01:15:27;;;;;;;18.38;10.65;;;12.60;99.90;;;;;;5015051;28;20022;-76
2021/04/27 01:17:55;;;;;;;22.30;12.23;;;12.50;99.90;;;;;;5014870;28;20046;-76
2021/04/27 01:20:33;;;;;;;20.98;10.52;;;12.60;99.90;;;;;;5014011;28;20026;-76
2021/04/27 01:23:11;;;;;;;21.67;11.10;;;12.60;99.90;;;;;;5012390;28;20030;-77
2021/04/27 01:25:42;;;;;;;22.55;10.75;;;12.60;99.90;;;;;;5012702;28;20100;-77
2021/04/27 01:28:09;;;;;;;18.77;10.95;;;12.70;99.90;;;;;;5013138;28;20536;-77
2021/04/27 01:30:38;;;;;;;17.17;10.23;;;12.60;99.90;;;;;;5013137;28;20030;-76
2021/04/27 01:33:07;;;;;;;15.88;10.88;;;12.60;99.90;;;;;;5012523;28;20025;-77
2021/04/27 01:35:35;;;;;;;19.58;11.43;;;12.60;99.90;;;;;;5013639;28;20097;-76
2021/04/27 01:38:01;;;;;;;15.52;11.38;;;12.60;99.90;;;;;;5013893;28;20033;-77
2021/04/27 01:40:28;;;;;;;18.00;11.50;;;12.60;99.90;;;;;;5013578;28;20394;-76
2021/04/27 01:42:55;;;;;;;17.27;10.73;;;12.60;99.90;;;;;;4995675;28;20045;-76
2021/04/27 01:45:21;;;;;;;17.17;11.70;;;12.60;99.90;;;;;;4996108;28;20327;-77
2021/04/27 01:47:47;;;;;;;20.40;12.57;;;12.60;99.90;;;;;;5014592;28;20502;-76
2021/04/27 01:50:13;;;;;;;18.38;11.93;;;12.50;99.90;;;;;;5014439;28;20018;-76
2021/04/27 01:52:39;;;;;;;18.88;11.82;;;12.50;99.90;;;;;;5013877;28;20029;-77
2021/04/27 01:55:07;;;;;;;22.60;12.57;;;12.40;99.90;;;;;;5013729;28;20022;-76
2021/04/27 01:57:33;;;;;;;17.75;12.27;;;12.40;99.90;;;;;;5013573;28;20025;-76
2021/04/27 01:59:59;;;;;;;19.73;13.35;;;12.30;99.90;;;;;;5014148;28;20577;-78
2021/04/27 02:02:25;;;;;;;20.77;13.40;;;12.20;99.90;;;;;;5013980;28;20356;-79
2021/04/27 02:04:51;;;;;;;22.30;13.07;;;12.20;99.90;;;;;;5013921;28;20021;-78
2021/04/27 02:07:16;;;;;;;23.48;14.27;;;12.20;99.90;;;;;;5013905;28;20045;-76
2021/04/27 02:09:42;;;;;;;25.20;14.05;;;12.10;99.90;;;;;;5013310;28;20580;-76
2021/04/27 02:12:08;;;;;;;22.05;13.65;;;12.10;99.90;;;;;;5013767;28;20550;-76
2021/04/27 02:14:34;;;;;;;26.92;13.88;;;12.10;99.90;;;;;;5013526;28;20026;-76
2021/04/27 02:17:27;;;;;;;20.17;13.15;;;12.10;99.90;;;;;;4996341;28;20075;-77
2021/04/27 02:19:55;;;;;;;20.40;11.80;;;12.10;99.90;;;;;;5000505;28;20072;-77
2021/04/27 02:22:26;;;;;;;17.08;11.75;;;12.10;99.90;;;;;;5013739;28;20029;-76
2021/04/27 02:24:53;;;;;;;25.23;12.82;;;12.10;99.90;;;;;;4999937;28;20018;-77
2021/04/27 02:27:19;;;;;;;20.90;12.60;;;12.20;99.90;;;;;;5013227;28;20018;-76
2021/04/27 02:29:46;;;;;;;17.17;11.93;;;12.20;99.90;;;;;;5012548;28;20034;-76
2021/04/27 02:32:13;;;;;;;20.10;12.15;;;12.20;99.90;;;;;;5013660;28;20060;-76
2021/04/27 02:34:39;;;;;;;22.83;13.27;;;12.20;99.90;;;;;;5003425;28;20022;-76
2021/04/27 02:37:05;;;;;;;20.83;13.02;;;12.30;99.90;;;;;;5013386;28;20029;-78
2021/04/27 02:39:31;;;;;;;22.75;12.82;;;12.20;99.90;;;;;;5013042;28;20376;-76
2021/04/27 02:41:56;;;;;;;22.40;13.63;;;12.20;99.90;;;;;;5012965;28;20080;-76
2021/04/27 02:44:23;;;;;;;21.63;14.02;;;12.20;99.90;;;;;;5013140;28;20030;-76
2021/04/27 02:46:49;;;;;;;25.52;14.13;;;12.20;99.90;;;;;;5012888;28;20097;-76
2021/04/27 02:49:15;;;;;;;28.58;15.20;;;12.10;99.90;;;;;;4995445;28;20117;-77
2021/04/27 02:51:41;;;;;;;22.67;15.07;;;12.10;99.90;;;;;;5012833;28;20026;-77
2021/04/27 02:54:07;;;;;;;22.60;14.30;;;12.00;99.90;;;;;;5012930;28;20033;-77
2021/04/27 02:56:33;;;;;;;24.15;15.45;;;12.00;99.90;;;;;;5011352;28;20462;-77
2021/04/27 02:59:00;;;;;;;28.52;15.38;;;12.00;99.90;;;;;;5013037;28;20030;-78
2021/04/27 03:01:27;;;;;;;23.02;14.55;;;12.00;99.90;;;;;;5012643;28;20112;-76
2021/04/27 03:03:53;;;;;;;20.70;13.85;;;12.00;99.90;;;;;;5012393;28;20032;-77
2021/04/27 03:06:19;;;;;;;24.38;14.57;;;11.90;99.90;;;;;;4996030;28;20450;-76
2021/04/27 03:08:44;;;;;;;22.30;14.27;;;11.90;99.90;;;;;;5012404;28;20113;-76
2021/04/27 03:11:10;;;;;;;19.75;13.05;;;11.90;99.90;;;;;;5012687;28;20022;-77
2021/04/27 03:13:36;;;;;;;28.05;14.57;;;12.00;99.90;;;;;;5012660;28;20426;-77
2021/04/27 03:16:02;;;;;;;21.75;14.35;;;12.00;99.90;;;;;;5012604;28;20426;-78
2021/04/27 03:18:27;;;;;;;25.33;14.15;;;12.00;99.90;;;;;;5012047;28;20037;-76
2021/04/27 03:20:53;;;;;;;30.33;14.70;;;12.00;99.90;;;;;;5011950;28;20037;-77
2021/04/27 03:23:21;;;;;;;26.40;15.18;;;12.10;99.90;;;;;;5012684;28;20113;-76
2021/04/27 03:25:47;;;;;;;20.73;13.93;;;12.10;99.90;;;;;;5012501;28;20053;-75
2021/04/27 03:28:13;;;;;;;19.92;13.93;;;12.10;99.90;;;;;;5012077;28;20018;-76
2021/04/27 03:30:39;;;;;;;19.38;13.00;;;12.10;99.90;;;;;;5011955;28;20540;-76
2021/04/27 03:33:05;;;;;;;25.55;13.55;;;12.20;99.90;;;;;;5012338;28;20466;-77
2021/04/27 03:35:30;;;;;;;19.70;13.15;;;12.20;99.90;;;;;;5012565;28;20026;-76
2021/04/27 03:37:57;;;;;;;22.88;12.63;;;12.30;99.90;;;;;;5011907;28;20125;-76
2021/04/27 03:40:23;;;;;;;20.42;12.25;;;12.30;99.90;;;;;;5012103;28;20021;-77
2021/04/27 03:42:48;;;;;;;19.20;12.85;;;12.30;99.90;;;;;;5011314;28;20509;-77
2021/04/27 03:45:18;;;;;;;20.90;12.25;;;12.40;99.90;;;;;;4994170;28;20471;-79
2021/04/27 03:47:44;;;;;;;26.23;13.65;;;12.40;99.90;;;;;;5011975;28;20026;-77
2021/04/27 03:50:15;;;;;;;20.98;12.52;;;12.40;99.90;;;;;;5011610;28;20028;-76
2021/04/27 03:52:41;;;;;;;25.05;13.52;;;12.50;99.90;;;;;;5011943;28;20034;-76
2021/04/27 03:55:07;;;;;;;19.95;13.68;;;12.50;99.90;;;;;;5011313;28;20413;-76
2021/04/27 03:57:32;;;;;;;21.35;14.15;;;12.50;99.90;;;;;;5011590;28;20441;-76
2021/04/27 03:59:58;;;;;;;25.40;14.07;;;12.40;99.90;;;;;;5011400;28;20101;-76
2021/04/27 04:02:24;;;;;;;24.52;13.73;;;12.40;99.90;;;;;;4993756;28;20390;-76
2021/04/27 04:04:50;;;;;;;21.90;13.35;;;12.30;99.90;;;;;;5011115;28;20474;-76
2021/04/27 04:07:15;;;;;;;23.75;13.35;;;12.30;99.90;;;;;;5011607;28;20356;-76
2021/04/27 04:09:41;;;;;;;23.92;14.25;;;12.30;99.90;;;;;;4994082;28;20029;-76
2021/04/27 04:12:08;;;;;;;27.42;14.02;;;12.30;99.90;;;;;;5011821;28;20060;-75
2021/04/27 04:14:34;;;;;;;18.15;13.50;;;12.30;99.90;;;;;;5011840;28;20093;-77
2021/04/27 04:17:00;;;;;;;28.88;14.55;;;12.30;99.90;;;;;;5011903;28;20109;-76
2021/04/27 04:19:26;;;;;;;24.35;14.65;;;12.40;99.90;;;;;;5011389;28;20108;-76
2021/04/27 04:21:52;;;;;;;26.92;14.82;;;12.30;99.90;;;;;;5011867;28;20030;-77
2021/04/27 04:24:18;;;;;;;26.20;15.45;;;12.40;99.90;;;;;;5011680;28;20037;-76
2021/04/27 04:26:43;;;;;;;26.40;15.60;;;12.30;99.90;;;;;;5011767;28;20629;-76
2021/04/27 04:29:09;;;;;;;31.27;15.13;;;12.30;99.90;;;;;;5011382;28;20029;-76
2021/04/27 04:31:34;;;;;;;26.90;15.63;;;12.20;99.90;;;;;;5011752;28;20022;-76
2021/04/27 04:34:00;;;;;;;29.23;18.27;;;12.20;99.90;;;;;;5010804;28;20148;-76
2021/04/27 04:36:26;;;;;;;33.40;16.60;;;12.10;99.90;;;;;;5011228;28;20109;-75
2021/04/27 04:38:52;;;;;;;26.83;16.92;;;12.10;99.90;;;;;;5011328;28;20056;-77
2021/04/27 04:41:17;;;;;;;27.73;16.42;;;12.10;99.90;;;;;;5010519;28;20053;-76
2021/04/27 04:43:43;;;;;;;27.10;14.55;;;12.10;99.90;;;;;;5015263;28;20069;-76
2021/04/27 04:46:09;;;;;;;25.50;15.30;;;12.10;99.90;;;;;;5015274;28;20386;-75
2021/04/27 04:48:35;;;;;;;25.63;15.07;;;12.10;99.90;;;;;;5015131;28;20029;-75
2021/04/27 04:51:01;;;;;;;25.75;15.75;;;12.20;99.90;;;;;;4997607;28;20022;-76
2021/04/27 04:53:27;;;;;;;23.27;15.60;;;12.20;99.90;;;;;;5014408;28;20052;-76
2021/04/27 04:55:53;;;;;;;23.25;14.40;;;12.20;99.90;;;;;;5015578;28;20475;-75
2021/04/27 04:58:19;;;;;;;24.80;15.57;;;12.20;99.90;;;;;;5014734;28;20017;-76
2021/04/27 05:00:45;;;;;;;22.55;14.73;;;12.20;99.90;;;;;;5015043;28;20026;-76
2021/04/27 05:03:10;;;;;;;26.83;15.50;;;12.20;99.90;;;;;;4997164;28;20033;-75
2021/04/27 05:05:36;;;;;;;27.88;14.32;;;12.20;99.90;;;;;;5015264;28;20667;-77
2021/04/27 05:08:10;;;;;;;22.67;14.02;;;12.20;99.90;;;;;;5014782;28;20026;-77
2021/04/27 05:10:36;;;;;;;25.98;15.93;;;12.30;99.90;;;;;;5014787;28;20125;-76
2021/04/27 05:13:02;;;;;;;25.15;14.43;;;12.30;99.90;;;;;;5014994;28;20033;-76
2021/04/27 05:15:28;;;;;;;24.88;14.07;;;12.30;99.90;;;;;;5014604;28;20057;-76
2021/04/27 05:17:54;;;;;;;25.30;15.23;;;12.40;99.90;;;;;;5014180;28;20053;-76
2021/04/27 05:20:20;;;;;;;24.23;14.57;;;12.40;99.90;;;;;;5014091;28;20024;-77
2021/04/27 05:22:46;;;;;;;23.58;15.52;;;12.40;99.90;;;;;;5014020;28;20376;-76
2021/04/27 05:25:13;;;;;;;25.40;15.05;;;12.40;99.90;;;;;;5014069;28;20025;-80
2021/04/27 05:27:39;;;;;;;25.13;15.80;;;12.40;99.90;;;;;;5013346;28;20048;-76
2021/04/27 05:30:05;;;;;;;24.40;15.98;;;12.40;99.90;;;;;;5012410;28;20030;-77
2021/04/27 05:32:31;;;;;;;25.15;16.23;;;12.30;99.90;;;;;;5013884;28;20449;-78
2021/04/27 05:34:57;;;;;;;21.80;13.73;;;12.30;99.90;;;;;;5014105;28;20026;-76
2021/04/27 05:37:22;;;;;;;29.33;16.17;;;12.30;99.90;;;;;;4996926;28;20029;-75
2021/04/27 05:39:48;;;;;;;28.35;16.52;;;12.30;99.90;;;;;;5014156;28;20060;-77
2021/04/27 05:42:14;;;;;;;27.83;16.30;;;12.20;99.90;;;;;;5012934;28;20077;-78
2021/04/27 05:44:40;;;;;;;22.67;15.70;;;12.30;99.90;;;;;;5014396;28;20060;-77
2021/04/27 05:47:06;;;;;;;31.88;16.83;;;12.30;99.90;;;;;;5014609;28;20036;-77
2021/04/27 05:49:31;;;;;;;24.73;15.90;;;12.30;99.90;;;;;;5014271;28;20021;-76
2021/04/27 05:51:57;;;;;;;29.83;16.25;;;12.30;99.90;;;;;;5014220;28;20116;-76
2021/04/27 05:54:23;;;;;;;28.42;15.15;;;12.30;99.90;;;;;;5012372;28;20026;-77
2021/04/27 05:56:49;;;;;;;24.80;15.13;;;12.30;99.90;;;;;;5013838;28;20025;-78
2021/04/27 05:59:15;;;;;;;28.83;15.63;;;12.40;99.90;;;;;;5014059;28;20026;-76
2021/04/27 06:01:41;;;;;;;29.88;15.63;;;12.40;99.90;;;;;;5014020;28;20026;-78
2021/04/27 06:04:07;;;;;;;25.38;15.23;;;12.50;99.90;;;;;;5013836;28;20478;-81
2021/04/27 06:06:35;;;;;;;22.05;14.40;;;12.50;99.90;;;;;;5014653;28;20045;-76
2021/04/27 06:09:03;;;;;;;29.50;15.52;;;12.50;99.90;;;;;;5013813;28;20014;-77
2021/04/27 06:11:29;;;;;;;24.13;13.90;;;12.50;99.90;;;;;;4996512;28;20061;-77
2021/04/27 06:13:54;;;;;;;26.50;15.35;;;12.50;99.90;;;;;;5013670;28;20022;-77
2021/04/27 06:16:20;;;;;;;26.08;12.75;;;12.50;99.90;;;;;;5013809;28;20033;-77
2021/04/27 06:18:46;;;;;;;22.50;12.90;;;12.60;99.90;;;;;;5013834;28;20088;-77
2021/04/27 06:21:12;;;;;;;17.50;12.20;;;12.70;99.90;;;;;;5013780;28;20356;-77
2021/04/27 06:23:38;;;;;;;20.85;12.18;;;12.70;99.90;;;;;;5013909;28;20025;-77
2021/04/27 06:26:04;;;;;;;21.92;12.13;;;12.70;99.90;;;;;;5014050;28;20068;-77
2021/04/27 06:28:30;;;;;;;20.25;11.30;;;12.70;99.90;;;;;;5013957;28;20038;-78
2021/04/27 06:30:56;;;;;;;21.55;12.07;;;12.70;99.90;;;;;;5013715;28;20529;-77
2021/04/27 06:33:21;;;;;;;19.67;12.32;;;12.70;99.90;;;;;;5013715;28;20022;-79
2021/04/27 06:35:47;;;;;;;21.20;12.10;;;12.70;99.90;;;;;;5013474;28;20100;-80
2021/04/27 06:38:17;;;;;;;19.75;10.90;;;12.70;99.90;;;;;;5013861;28;20063;-77
2021/04/27 06:40:45;;;;;;;19.35;10.20;;;12.70;99.90;;;;;;5013870;28;20351;-77
2021/04/27 06:43:11;;;;;;;20.05;10.20;;;12.80;99.90;;;;;;5012436;28;20117;-78
2021/04/27 06:45:36;;;;;;;19.25;10.60;;;12.80;99.90;;;;;;5013212;28;20025;-76
2021/04/27 06:48:07;;;;;;;17.48;10.95;;;12.80;99.90;;;;;;5013469;28;20104;-77
2021/04/27 06:50:34;;;;;;;13.63;9.48;;;12.90;99.90;;;;;;5013424;28;20033;-79
2021/04/27 06:53:00;;;;;;;22.27;10.38;;;12.90;99.90;;;;;;5013275;28;20018;-77
2021/04/27 06:55:27;;;;;;;15.25;9.38;;;12.90;99.90;;;;;;5013367;28;20017;-76
2021/04/27 06:57:53;;;;;;;14.25;9.48;;;13.00;99.90;;;;;;5013109;28;20164;-76
2021/04/27 07:00:19;;;;;;;12.20;10.07;;;13.00;99.90;;;;;;4995569;28;20030;-77
2021/04/27 07:02:45;;;;;;;14.73;9.25;;;13.00;99.90;;;;;;5013440;28;20119;-76
2021/04/27 07:05:11;;;;;;;14.43;9.05;;;13.00;99.90;;;;;;5012400;28;20029;-77
2021/04/27 07:07:37;;;;;;;23.27;10.27;;;13.00;99.90;;;;;;5013232;28;20022;-76
2021/04/27 07:10:03;;;;;;;16.60;10.43;;;13.00;99.90;;;;;;4995563;28;20022;-77
2021/04/27 07:12:28;;;;;;;15.40;9.80;;;13.00;99.90;;;;;;5012907;28;20018;-76
2021/04/27 07:14:54;;;;;;;14.68;9.95;;;13.00;99.90;;;;;;5013059;28;20039;-76
2021/04/27 07:17:20;;;;;;;13.85;9.57;;;13.00;99.90;;;;;;4995315;28;20037;-77
2021/04/27 07:19:46;;;;;;;14.00;9.27;;;13.00;99.90;;;;;;4995629;28;20044;-77
2021/04/27 07:22:11;;;;;;;17.17;8.77;;;13.00;99.90;;;;;;5012563;28;20438;-76
2021/04/27 07:24:37;;;;;;;17.33;10.68;;;13.00;99.90;;;;;;4993857;28;20109;-76
2021/04/27 07:27:04;;;;;;;23.83;10.57;;;13.00;99.90;;;;;;5012627;28;20662;-82
2021/04/27 07:29:30;;;;;;;56.25;11.07;;;13.00;99.90;;;;;;5012918;28;20540;-77
2021/04/27 07:31:56;;;;;;;26.10;9.85;;;13.00;99.90;;;;;;5009703;28;20026;-76
2021/04/27 07:34:22;;;;;;;14.50;8.88;;;13.00;99.90;;;;;;5012740;28;20080;-76
2021/04/27 07:36:48;;;;;;;14.32;9.23;;;13.00;99.90;;;;;;5013009;28;20034;-77
2021/04/27 07:39:14;;;;;;;18.92;10.02;;;13.10;99.90;;;;;;5012059;28;20026;-77
2021/04/27 07:41:41;;;;;;;58.80;9.77;;;13.10;99.90;;;;;;5012620;28;20024;-77
2021/04/27 07:44:08;;;;;;;37.40;9.98;;;13.10;99.90;;;;;;5012239;28;20457;-76
2021/04/27 07:46:34;;;;;;;29.73;9.80;;;13.10;99.90;;;;;;5012638;28;20021;-79
2021/04/27 07:49:00;;;;;;;16.00;8.70;;;13.10;99.90;;;;;;5011968;28;20049;-76
2021/04/27 07:51:26;;;;;;;75.57;11.02;;;13.20;99.90;;;;;;5011667;28;20041;-76
2021/04/27 07:53:52;;;;;;;69.85;10.27;;;13.20;99.90;;;;;;5009884;28;20018;-77
2021/04/27 07:56:18;;;;;;;17.40;8.02;;;13.30;99.90;;;;;;5003208;28;20030;-77
2021/04/27 07:58:44;;;;;;;20.17;8.23;;;13.40;99.90;;;;;;5007170;28;20475;-76
2021/04/27 08:01:10;;;;;;;24.38;7.88;;;13.40;99.90;;;;;;5011969;28;20159;-77
2021/04/27 08:03:35;;;;;;;15.30;7.93;;;13.50;99.90;;;;;;5011349;28;20034;-79
2021/04/27 08:06:01;;;;;;;22.95;10.35;;;13.50;99.90;;;;;;5011584;28;20049;-79
2021/04/27 08:08:27;;;;;;;30.85;8.38;;;13.60;99.90;;;;;;5011352;28;20431;-77
2021/04/27 08:10:53;;;;;;;14.90;7.30;;;13.60;99.90;;;;;;5009779;28;20021;-76
2021/04/27 08:13:18;;;;;;;24.65;8.32;;;13.60;99.90;;;;;;5009972;28;20029;-76
2021/04/27 08:15:45;;;;;;;33.67;7.90;;;13.60;99.90;;;;;;5002200;28;20026;-79
2021/04/27 08:18:11;;;;;;;11.13;7.13;;;13.70;99.90;;;;;;5008340;28;20141;-79
2021/04/27 08:20:37;;;;;;;13.05;7.50;;;13.80;99.90;;;;;;5011062;28;20105;-76
2021/04/27 08:23:04;;;;;;;16.50;7.50;;;13.90;99.90;;;;;;5011739;28;20038;-78
2021/04/27 08:25:31;;;;;;;16.42;7.30;;;13.90;99.90;;;;;;5012292;28;20029;-76
2021/04/27 08:27:56;;;;;;;16.17;7.28;;;13.90;99.90;;;;;;4993940;28;20045;-77
2021/04/27 08:30:23;;;;;;;11.23;6.70;;;13.90;99.90;;;;;;5011016;28;20546;-79
2021/04/27 08:32:52;;;;;;;10.93;7.40;;;13.90;99.90;;;;;;5010903;28;20037;-77
2021/04/27 08:35:18;;;;;;;8.95;6.70;;;13.90;99.90;;;;;;5006179;28;20037;-77
2021/04/27 08:37:43;;;;;;;16.67;7.20;;;14.00;99.90;;;;;;5011313;28;20026;-77
2021/04/27 08:40:11;;;;;;;10.32;6.55;;;14.10;99.90;;;;;;5010903;28;20518;-77
2021/04/27 08:42:37;;;;;;;12.65;6.53;;;14.20;99.90;;;;;;5010758;28;20117;-78
2021/04/27 08:45:05;;;;;;;22.15;7.18;;;14.10;99.90;;;;;;5011383;28;20096;-76
2021/04/27 08:47:30;;;;;;;9.85;6.88;;;14.20;99.90;;;;;;5011229;28;20054;-76
2021/04/27 08:49:56;;;;;;;12.82;6.72;;;14.20;99.90;;;;;;5011703;28;20057;-76
2021/04/27 08:52:22;;;;;;;8.85;6.70;;;14.30;99.90;;;;;;5011048;28;20109;-76
2021/04/27 08:54:48;;;;;;;13.07;6.28;;;14.40;99.90;;;;;;5011161;28;20022;-75
2021/04/27 08:57:14;;;;;;;9.05;6.22;;;14.50;99.90;;;;;;5009514;28;20038;-76
2021/04/27 08:59:40;;;;;;;9.23;6.47;;;14.60;99.90;;;;;;5010157;28;20038;-75
2021/04/27 09:02:07;;;;;;;9.77;6.45;;;14.70;99.90;;;;;;5010593;28;20120;-77
2021/04/27 09:04:48;;;;;;;12.60;7.70;;;14.70;99.90;;;;;;4992103;28;20022;-81
2021/04/27 09:07:17;;;;;;;11.05;7.47;;;14.70;99.90;;;;;;5005491;28;20030;-76
2021/04/27 09:09:45;;;;;;;15.70;7.93;;;14.80;99.90;;;;;;5007737;28;20031;-75
2021/04/27 09:12:12;;;;;;;12.95;6.75;;;14.70;99.90;;;;;;5005382;28;20029;-76
2021/04/27 09:14:41;;;;;;;10.27;7.32;;;14.60;99.90;;;;;;5006765;28;20374;-75
2021/04/27 09:17:10;;;;;;;16.70;7.65;;;14.50;99.90;;;;;;5006857;28;20116;-75
2021/04/27 09:19:40;;;;;;;13.18;6.43;;;14.60;99.90;;;;;;4989258;28;20379;-75
2021/04/27 09:22:17;;;;;;;8.95;6.00;;;14.60;99.90;;;;;;5001907;28;20049;-75
2021/04/27 09:24:46;;;;;;;17.42;6.82;;;14.70;99.90;;;;;;5007840;28;20029;-77
2021/04/27 09:27:14;;;;;;;11.95;5.78;;;14.80;99.90;;;;;;5010221;28;20053;-75
2021/04/27 09:29:43;;;;;;;13.30;7.20;;;15.00;99.90;;;;;;5012363;28;20022;-75
2021/04/27 09:32:09;;;;;;;10.10;5.80;;;15.10;99.90;;;;;;5015036;28;20076;-74
2021/04/27 09:34:38;;;;;;;10.02;5.85;;;15.10;99.90;;;;;;5013441;28;20758;-75
2021/04/27 09:37:06;;;;;;;16.92;6.10;;;15.10;99.90;;;;;;5013891;28;20022;-75
2021/04/27 09:39:46;;;;;;;23.08;6.20;;;15.20;99.90;;;;;;5013078;28;20056;-75
2021/04/27 09:42:18;;;;;;;9.38;5.93;;;15.30;99.90;;;;;;5000767;28;20125;-74
2021/04/27 09:44:53;;;;;;;15.75;6.70;;;15.30;99.90;;;;;;5013670;28;20032;-75
2021/04/27 09:47:33;;;;;;;16.73;6.20;;;15.40;99.90;;;;;;5013815;28;20025;-78
2021/04/27 09:50:06;;;;;;;15.50;6.72;;;15.30;99.90;;;;;;5013918;28;20470;-74
2021/04/27 09:52:33;;;;;;;9.98;6.15;;;15.40;99.90;;;;;;5013257;28;20032;-75
2021/04/27 09:55:06;;;;;;;10.35;6.03;;;15.50;99.90;;;;;;5012911;28;20037;-74
2021/04/27 09:57:35;;;;;;;13.27;5.82;;;15.60;99.90;;;;;;5013281;28;20018;-74
2021/04/27 10:00:29;;;;;;;7.63;4.75;;;15.60;99.90;;;;;;5011700;28;20021;-73
2021/04/27 10:03:00;;;;;;;6.07;4.65;;;15.50;99.90;;;;;;5013352;28;20509;-73
2021/04/27 10:05:26;;;;;;;5.22;4.53;;;15.40;99.90;;;;;;5012307;28;20487;-75
2021/04/27 10:07:54;;;;;;;7.15;4.70;;;15.40;99.90;;;;;;5013043;28;20065;-75
2021/04/27 10:10:20;;;;;;;5.40;4.55;;;15.50;99.90;;;;;;5012734;28;20022;-75
2021/04/27 10:12:47;;;;;;;8.57;4.18;;;15.50;99.90;;;;;;5013448;28;20117;-73
2021/04/27 10:15:14;;;;;;;7.40;4.82;;;15.50;99.90;;;;;;5013779;28;20390;-73
2021/04/27 10:17:41;;;;;;;4.05;3.13;;;15.50;99.90;;;;;;5013051;28;20510;-74
2021/04/27 10:20:12;;;;;;;5.18;3.10;;;15.50;99.90;;;;;;5013452;28;20040;-73
2021/04/27 10:22:43;;;;;;;5.07;3.70;;;15.40;99.90;;;;;;5000769;28;20491;-73
2021/04/27 10:25:18;;;;;;;7.90;4.05;;;15.50;99.90;;;;;;5010683;28;20041;-74
2021/04/27 10:27:44;;;;;;;5.05;3.35;;;15.50;99.90;;;;;;5011764;28;20032;-75
2021/04/27 10:30:16;;;;;;;6.00;3.40;;;15.50;99.90;;;;;;5012969;28;20116;-74
2021/04/27 10:32:42;;;;;;;4.18;2.70;;;15.50;99.90;;;;;;5012572;28;20030;-72
2021/04/27 10:35:11;;;;;;;3.95;3.13;;;15.50;99.90;;;;;;5012628;28;20037;-74
2021/04/27 10:37:58;;;;;;;5.85;3.30;;;15.50;99.90;;;;;;5013060;28;20018;-76
2021/04/27 10:40:48;;;;;;;4.70;3.40;;;15.40;99.90;;;;;;5001985;28;20044;-73
2021/04/27 10:43:23;;;;;;;5.25;3.95;;;15.50;99.90;;;;;;5011369;28;20076;-73
2021/04/27 10:45:55;;;;;;;5.05;3.88;;;15.60;99.90;;;;;;5012883;28;20390;-75
2021/04/27 10:48:46;;;;;;;;;;;15.60;99.90;;;;;;5013183;28;20061;-76
2021/04/27 10:51:24;;;;;;;6.90;3.88;;;15.50;99.90;;;;;;5010271;28;20631;-74
2021/04/27 10:54:28;;;;;;;6.68;3.42;;;15.50;99.90;;;;;;5009639;28;20024;-74
2021/04/27 10:57:14;;;;;;;4.68;3.42;;;15.50;99.90;;;;;;5013023;28;20506;-74
2021/04/27 10:59:52;;;;;;;4.50;3.15;;;15.60;99.90;;;;;;5011178;28;20040;-72
2021/04/27 11:02:31;;;;;;;3.08;2.75;;;15.60;99.90;;;;;;5012260;28;20053;-74
2021/04/27 11:05:19;;;;;;;3.15;2.85;;;15.60;99.90;;;;;;5012595;28;20014;-75
2021/04/27 11:07:46;;;;;;;6.90;2.70;;;15.70;99.90;;;;;;5012456;28;20032;-75
2021/04/27 11:10:18;;;;;;;3.03;2.70;;;15.70;99.90;;;;;;5011458;28;20026;-74
2021/04/27 11:12:56;;;;;;;4.53;2.92;;;15.70;99.90;;;;;;5012893;28;20052;-75
2021/04/27 11:15:27;;;;;;;3.42;3.00;;;15.60;99.90;;;;;;5012495;28;20026;-74
2021/04/27 11:18:05;;;;;;;4.43;2.97;;;15.60;99.90;;;;;;5012883;28;20033;-75
2021/04/27 11:20:49;;;;;;;4.18;3.00;;;15.60;99.90;;;;;;5012568;28;20030;-79
2021/04/27 11:23:33;;;;;;;4.18;2.92;;;15.60;99.90;;;;;;5012472;28;20513;-75
2021/04/27 11:25:59;;;;;;;4.03;2.95;;;15.50;99.90;;;;;;5012559;28;20030;-77
2021/04/27 11:28:51;;;;;;;4.90;3.30;;;15.40;99.90;;;;;;5012655;28;20026;-78
2021/04/27 11:31:17;;;;;;;3.63;3.05;;;15.50;99.90;;;;;;5011712;28;20156;-74
2021/04/27 11:33:43;;;;;;;4.00;3.25;;;15.40;99.90;;;;;;5011472;28;20176;-75
2021/04/27 11:36:09;;;;;;;10.00;2.97;;;15.20;99.90;;;;;;4993648;28;20441;-74
2021/04/27 11:38:34;;;;;;;2.97;2.60;;;15.10;99.90;;;;;;5011578;28;20030;-75
2021/04/27 11:41:00;;;;;;;10.10;2.85;;;15.00;99.90;;;;;;5011569;28;20018;-74
2021/04/27 11:43:26;;;;;;;5.90;3.13;;;15.00;99.90;;;;;;5011127;28;20149;-77
2021/04/27 11:45:52;;;;;;;3.28;2.88;;;15.00;99.90;;;;;;5011163;28;20083;-78
2021/04/27 11:48:22;;;;;;;3.72;2.80;;;15.00;99.90;;;;;;5011543;28;20034;-80
2021/04/27 11:50:49;;;;;;;3.90;2.83;;;15.10;99.90;;;;;;5011153;28;20018;-77
2021/04/27 11:53:21;;;;;;;6.18;3.05;;;15.10;99.90;;;;;;5011198;28;20077;-76
2021/04/27 11:55:51;;;;;;;3.78;3.10;;;15.10;99.90;;;;;;5009181;28;20072;-75
2021/04/27 11:58:21;;;;;;;3.40;2.88;;;15.00;99.90;;;;;;5009909;28;20049;-82
2021/04/27 12:00:54;;;;;;;5.25;2.80;;;15.00;99.90;;;;;;5008501;28;20503;-76
2021/04/27 12:03:26;;;;;;;3.17;2.83;;;14.90;99.90;;;;;;5009259;28;20368;-75
2021/04/27 12:06:06;;;;;;;7.57;3.13;;;14.90;99.90;;;;;;5011490;28;20028;-81
2021/04/27 12:08:36;;;;;;;3.78;2.88;;;14.80;99.90;;;;;;5008626;28;20092;-79
2021/04/27 12:11:19;;;;;;;4.80;3.00;;;14.80;99.90;;;;;;5007792;28;20432;-81
2021/04/27 12:14:16;;;;;;;8.30;3.08;;;14.80;99.90;;;;;;5010636;28;20117;-76
2021/04/27 12:16:46;;;;;;;3.90;2.70;;;14.90;99.90;;;;;;4993577;28;20026;-75
2021/04/27 12:19:13;;;;;;;7.90;3.05;;;14.90;99.90;;;;;;5010652;28;20377;-80
2021/04/27 12:22:07;;;;;;;17.15;3.17;;;14.80;99.90;;;;;;5007955;28;20034;-90
2021/04/27 12:24:36;;;;;;;2.78;2.58;;;14.90;99.90;;;;;;5006377;28;20031;-78
2021/04/27 12:27:06;;;;;;;2.60;2.40;;;14.80;99.90;;;;;;5011448;28;20029;-74
2021/04/27 12:30:07;;;;;;;5.15;2.90;;;14.80;99.90;;;;;;5011512;28;20029;-74
2021/04/27 12:32:35;;;;;;;3.90;2.50;;;14.80;99.90;;;;;;5009061;28;20083;-75
2021/04/27 12:35:08;;;;;;;4.70;2.95;;;14.90;99.90;;;;;;5009807;28;20033;-74
2021/04/27 12:37:37;;;;;;;4.78;2.72;;;14.80;99.90;;;;;;5011486;28;20037;-79
2021/04/27 12:40:15;;;;;;;6.03;3.03;;;14.90;99.90;;;;;;5011570;28;20014;-76